Terminal Aerodrome Forecast
Issued by NWS Melbourne, FL

Home | Current Version | Previous Version | Text Only | Print | Product List | Glossary On
Versions: 1 2 3 4 5 6 7 8 9 10 11 12 13 14 15
000
FTUS42 KMLB 112300
TAFDAB
TAF
KDAB 112338Z 1200/1224 12004KT P6SM SCT100 BKN250
     FM121400 14005KT P6SM SCT025 BKN250
     FM121800 08008KT P6SM VCTS SCT040CB BKN250=

USA.gov is the U.S. government's official web portal to all federal, state and local government web resources and services.